createdAt,value
2019-05-07T00:00:03.611Z,99.9
2019-05-07T00:05:02.913Z,99.9
2019-05-07T00:10:03.571Z,99.9
2019-05-07T00:15:04.826Z,99.9
2019-05-07T00:20:07.769Z,99.9
2019-05-07T00:25:03.357Z,99.9
2019-05-07T00:30:03.476Z,99.9
2019-05-07T00:35:02.743Z,99.9
2019-05-07T00:40:06.031Z,99.9
2019-05-07T00:45:20.414Z,99.9
2019-05-07T00:50:03.531Z,99.9
2019-05-07T00:55:03.140Z,99.9
2019-05-07T01:00:02.504Z,99.9
2019-05-07T01:05:03.337Z,99.9
2019-05-07T01:10:04.556Z,99.9
2019-05-07T01:15:03.242Z,99.9
2019-05-07T01:20:04.755Z,99.9
2019-05-07T01:25:02.481Z,99.9
2019-05-07T01:30:04.961Z,99.9
2019-05-07T01:35:02.722Z,99.9
2019-05-07T01:40:03.359Z,99.9
2019-05-07T01:45:02.622Z,99.9
2019-05-07T01:50:18.441Z,99.9
2019-05-07T01:55:03.516Z,99.9
2019-05-07T02:00:02.844Z,99.9
2019-05-07T02:05:03.448Z,99.9
2019-05-07T02:10:03.066Z,99.9
2019-05-07T02:15:03.010Z,99.9
2019-05-07T02:20:02.933Z,99.9
2019-05-07T02:25:03.589Z,99.9
2019-05-07T02:30:04.758Z,99.9
2019-05-07T02:35:04.630Z,99.9
2019-05-07T02:40:04.744Z,99.9
2019-05-07T02:45:04.701Z,99.9
2019-05-07T02:50:03.413Z,99.9
2019-05-07T02:55:04.458Z,99.9
2019-05-07T03:00:05.047Z,99.9
2019-05-07T03:05:05.589Z,99.9
2019-05-07T03:10:03.982Z,99.9
2019-05-07T03:15:04.984Z,99.9
2019-05-07T03:20:03.431Z,99.9
2019-05-07T03:25:03.738Z,99.9
2019-05-07T03:30:04.817Z,99.9
2019-05-07T03:35:07.901Z,99.9
2019-05-07T03:40:04.445Z,99.9
2019-05-07T03:45:04.033Z,99.9
2019-05-07T03:50:03.734Z,99.9
2019-05-07T03:55:04.155Z,99.9
2019-05-07T04:00:04.683Z,99.9
2019-05-07T04:05:04.673Z,99.9
2019-05-07T04:10:04.870Z,99.9
2019-05-07T04:15:06.819Z,99.9
2019-05-07T04:20:04.866Z,99.9
2019-05-07T04:25:04.761Z,99.9
2019-05-07T04:30:04.159Z,99.9
2019-05-07T04:35:04.367Z,99.9
2019-05-07T04:40:03.517Z,99.9
2019-05-07T04:45:04.595Z,99.9
2019-05-07T04:50:09.112Z,99.9
2019-05-07T04:55:04.591Z,99.9
2019-05-07T05:00:03.986Z,99.9
2019-05-07T05:05:03.686Z,99.9
2019-05-07T05:10:03.540Z,99.9
2019-05-07T05:15:02.432Z,99.9
2019-05-07T05:20:03.950Z,99.9
2019-05-07T05:25:02.725Z,99.9
2019-05-07T05:30:03.266Z,99.9
2019-05-07T05:35:03.561Z,99.9
2019-05-07T05:40:09.025Z,99.9
2019-05-07T05:45:02.724Z,99.9
2019-05-07T05:50:02.197Z,99.9
2019-05-07T05:55:09.166Z,99.9
2019-05-07T06:00:02.758Z,99.9
2019-05-07T06:05:02.478Z,99.9
2019-05-07T06:10:13.149Z,99.9
2019-05-07T06:15:02.095Z,99.9
2019-05-07T06:20:03.327Z,99.9
2019-05-07T06:25:04.453Z,99.9
2019-05-07T06:30:08.671Z,99.9
2019-05-07T06:35:03.321Z,99.9
2019-05-07T06:40:02.872Z,99.9
2019-05-07T06:45:05.012Z,99.9
2019-05-07T06:50:03.386Z,99.9
2019-05-07T06:55:03.534Z,99.9
2019-05-07T07:00:02.905Z,99.9
2019-05-07T07:05:03.628Z,99.9
2019-05-07T07:10:03.028Z,99.9
2019-05-07T07:15:03.470Z,99.9
2019-05-07T07:20:02.492Z,99.9
2019-05-07T07:25:06.819Z,99.9
2019-05-07T07:30:02.636Z,99.9
2019-05-07T07:35:02.740Z,99.9
2019-05-07T07:40:02.312Z,99.9
2019-05-07T07:45:03.196Z,99.9
2019-05-07T07:50:02.547Z,99.9
2019-05-07T07:55:04.073Z,99.9
2019-05-07T08:00:02.861Z,99.9
2019-05-07T08:05:02.344Z,99.9
2019-05-07T08:10:02.882Z,99.9
2019-05-07T08:15:21.062Z,99.9
2019-05-07T08:20:02.787Z,99.9
2019-05-07T08:25:02.384Z,99.9
2019-05-07T08:30:03.174Z,99.9
2019-05-07T08:35:02.612Z,99.9
2019-05-07T08:40:03.330Z,99.9
2019-05-07T08:45:03.338Z,99.9
2019-05-07T08:50:03.090Z,99.9
2019-05-07T08:55:02.819Z,99.9
2019-05-07T09:00:04.870Z,97.6
2019-05-07T09:05:13.605Z,95.3
2019-05-07T09:10:02.777Z,95.1
2019-05-07T09:15:02.460Z,99.3
2019-05-07T09:20:02.908Z,99.3
2019-05-07T09:25:03.370Z,98.9
2019-05-07T09:30:02.949Z,99.4
2019-05-07T09:35:02.540Z,99.9
2019-05-07T09:40:03.282Z,99.9
2019-05-07T09:45:02.218Z,90.6
2019-05-07T09:50:08.951Z,82.2
2019-05-07T09:55:16.751Z,81
2019-05-07T10:00:03.230Z,84.4
2019-05-07T10:05:02.763Z,91
2019-05-07T10:10:03.521Z,78.2
2019-05-07T10:15:03.326Z,67.7
2019-05-07T10:20:19.037Z,72
2019-05-07T10:25:03.161Z,69.1
2019-05-07T10:30:02.722Z,57.9
2019-05-07T10:35:02.580Z,56.3
2019-05-07T10:40:03.351Z,61
2019-05-07T10:45:03.320Z,61.4
2019-05-07T10:50:03.050Z,54.8
2019-05-07T10:55:05.491Z,51.2
2019-05-07T11:00:03.441Z,51.3
2019-05-07T11:05:03.450Z,54.4
2019-05-07T11:10:02.394Z,56.2
2019-05-07T11:15:02.424Z,54.9
2019-05-07T11:20:03.305Z,45.9
2019-05-07T11:25:03.261Z,44.7
2019-05-07T11:30:02.929Z,42.9
2019-05-07T11:35:03.323Z,46.4
2019-05-07T11:40:03.420Z,47
2019-05-07T11:45:02.831Z,48.7
2019-05-07T11:50:03.430Z,48.6
2019-05-07T11:55:03.332Z,45
2019-05-07T12:00:03.035Z,44.4
2019-05-07T12:05:07.890Z,43.2
2019-05-07T12:10:05.105Z,43.2
2019-05-07T12:15:06.562Z,41.4
2019-05-07T12:20:02.684Z,41.4
2019-05-07T12:25:03.312Z,42.1
2019-05-07T12:30:02.173Z,43
2019-05-07T12:35:03.446Z,42.5
2019-05-07T12:40:02.187Z,41.7
2019-05-07T12:45:02.881Z,41.8
2019-05-07T12:50:02.022Z,41
2019-05-07T12:55:12.149Z,38.3
2019-05-07T13:00:02.342Z,38.1
2019-05-07T13:05:05.406Z,39.5
2019-05-07T13:10:02.843Z,39.5
2019-05-07T13:15:03.538Z,40.8
2019-05-07T13:20:02.185Z,39.9
2019-05-07T13:25:05.870Z,39.8
2019-05-07T13:30:02.807Z,39.7
2019-05-07T13:35:02.932Z,40.9
2019-05-07T13:40:02.904Z,38.2
2019-05-07T13:45:03.045Z,38.8
2019-05-07T13:50:02.889Z,39.9
2019-05-07T13:55:03.007Z,39.3
2019-05-07T14:00:05.200Z,38.8
2019-05-07T14:05:03.451Z,40.4
2019-05-07T14:10:02.506Z,39.1
2019-05-07T14:15:02.374Z,40
2019-05-07T14:20:05.148Z,40.5
2019-05-07T14:25:01.918Z,40.3
2019-05-07T14:30:03.333Z,41.8
2019-05-07T14:35:02.377Z,42
2019-05-07T14:40:05.905Z,40.3
2019-05-07T14:45:02.085Z,40.3
2019-05-07T14:50:02.385Z,40.7
2019-05-07T14:55:05.442Z,41.2
2019-05-07T15:00:03.509Z,40.3
2019-05-07T15:05:03.030Z,39.6
2019-05-07T15:10:02.543Z,40.2
2019-05-07T15:15:03.437Z,38.9
2019-05-07T15:20:03.057Z,38.4
2019-05-07T15:25:03.108Z,38
2019-05-07T15:30:02.629Z,38.5
2019-05-07T15:35:02.487Z,38.3
2019-05-07T15:40:02.823Z,39.2
2019-05-07T15:45:02.547Z,39.6
2019-05-07T15:50:05.026Z,38.9
2019-05-07T15:55:03.004Z,38.9
2019-05-07T16:00:02.558Z,39
2019-05-07T16:05:04.929Z,40.1
2019-05-07T16:10:02.789Z,37.7
2019-05-07T16:15:03.449Z,38.4
2019-05-07T16:20:03.391Z,37.8
2019-05-07T16:25:07.528Z,38.2
2019-05-07T16:30:01.702Z,37.6
2019-05-07T16:35:05.808Z,36.7
2019-05-07T16:40:04.844Z,37.4
2019-05-07T16:45:03.096Z,37.2
2019-05-07T16:50:04.346Z,37.7
2019-05-07T16:55:03.356Z,37
2019-05-07T17:00:03.114Z,37.5
2019-05-07T17:05:03.607Z,38.1
2019-05-07T17:10:02.925Z,37.8
2019-05-07T17:15:05.896Z,38.1
2019-05-07T17:20:03.053Z,38
2019-05-07T17:25:03.401Z,38.3
2019-05-07T17:30:03.189Z,38.8
2019-05-07T17:35:02.863Z,39.4
2019-05-07T17:40:04.533Z,39
2019-05-07T17:45:05.524Z,38.9
2019-05-07T17:50:02.335Z,38.9
2019-05-07T17:55:05.980Z,42.3
2019-05-07T18:00:02.514Z,42.3
2019-05-07T18:05:08.538Z,50.8
2019-05-07T18:10:02.636Z,50.8
2019-05-07T18:15:08.569Z,47.9
2019-05-07T18:20:02.746Z,48.2
2019-05-07T18:25:02.104Z,58.3
2019-05-07T18:30:03.037Z,56.2
2019-05-07T18:35:02.571Z,63.7
2019-05-07T18:40:05.305Z,72.7
2019-05-07T18:45:02.400Z,72.6
2019-05-07T18:50:03.124Z,92.2
2019-05-07T18:55:02.982Z,86.3
2019-05-07T19:00:05.404Z,99.4
2019-05-07T19:05:03.383Z,99.9
2019-05-07T19:10:02.985Z,99.9
2019-05-07T19:15:03.162Z,99.9
2019-05-07T19:20:03.629Z,99.9
2019-05-07T19:25:03.217Z,99.9
2019-05-07T19:30:05.833Z,99.9
2019-05-07T19:35:01.950Z,99.9
2019-05-07T19:40:03.633Z,99.9
2019-05-07T19:45:02.863Z,99.9
2019-05-07T19:50:03.378Z,99.9
2019-05-07T19:55:05.031Z,99.9
2019-05-07T20:00:01.505Z,99.9
2019-05-07T20:05:03.740Z,99.9
2019-05-07T20:10:02.905Z,99.9
2019-05-07T20:15:05.034Z,99.9
2019-05-07T20:20:03.312Z,99.9
2019-05-07T20:25:19.067Z,99.9
2019-05-07T20:30:03.407Z,99.9
2019-05-07T20:35:03.010Z,99.9
2019-05-07T20:40:03.217Z,99.9
2019-05-07T20:45:03.318Z,99.9
2019-05-07T20:50:04.662Z,99.9
2019-05-07T20:55:02.858Z,99.9
2019-05-07T21:00:03.031Z,99.9
2019-05-07T21:05:05.291Z,99.9
2019-05-07T21:10:02.424Z,99.9
2019-05-07T21:15:03.787Z,99.9
2019-05-07T21:20:02.167Z,99.9
2019-05-07T21:25:03.378Z,99.9
2019-05-07T21:30:02.722Z,99.9
2019-05-07T21:35:02.706Z,99.9
2019-05-07T21:40:02.749Z,99.9
2019-05-07T21:45:03.507Z,99.9
2019-05-07T21:50:03.206Z,99.9
2019-05-07T21:55:02.847Z,99.9
2019-05-07T22:00:02.409Z,99.9
2019-05-07T22:05:02.880Z,99.9
2019-05-07T22:10:02.435Z,99.9
2019-05-07T22:15:04.659Z,99.9
2019-05-07T22:20:03.264Z,99.9
2019-05-07T22:25:05.550Z,99.9
2019-05-07T22:30:02.472Z,99.9
2019-05-07T22:35:03.096Z,99.9
2019-05-07T22:40:03.073Z,99.9
2019-05-07T22:45:03.063Z,99.9
2019-05-07T22:50:03.110Z,99.9
2019-05-07T22:55:03.406Z,99.9
2019-05-07T23:00:05.051Z,99.9
2019-05-07T23:05:03.111Z,99.9
2019-05-07T23:10:03.161Z,99.9
2019-05-07T23:15:02.978Z,99.9
2019-05-07T23:20:02.364Z,99.9
2019-05-07T23:25:01.589Z,99.9
2019-05-07T23:30:02.976Z,99.9
2019-05-07T23:35:02.385Z,99.9
2019-05-07T23:40:03.279Z,99.9
2019-05-07T23:45:02.308Z,99.9
2019-05-07T23:50:02.259Z,99.9
2019-05-07T23:55:03.126Z,99.9
